Terminal Aerodrome Forecast
Issued by NWS

Home | Current Version | Previous Version | Text Only | Print | Product List | Glossary On
Versions: 1 2 3 4 5 6 7 8 9 10 11 12 13 14 15 16 17 18 19 20 21 22 23 24 25 26 27 28 29 30 31 32 33 34
000
FTPA31 PHFO 261500 AAA
TAFITO
TAF AMD
PHTO 261509Z 2615/2712 23004KT P6SM VCSH SCT025 OVC040
      TEMPO 2615/2618 -RA SCT015 BKN025 OVC035
     FM262000 01010KT P6SM VCSH SCT025 BKN045
     FM270700 31007KT P6SM VCSH SCT025 BKN040=

USA.gov is the U.S. government's official web portal to all federal, state and local government web resources and services.